createdAt,value
2023-03-25T00:02:17.896Z,35.43
2023-03-25T00:04:51.141Z,40.67
2023-03-25T00:07:23.228Z,32.53
2023-03-25T00:09:51.739Z,35.60
2023-03-25T00:12:23.348Z,40.00
2023-03-25T00:14:55.854Z,35.00
2023-03-25T00:17:31.889Z,34.70
2023-03-25T00:20:02.690Z,37.23
2023-03-25T00:22:41.819Z,31.17
2023-03-25T00:25:19.591Z,33.13
2023-03-25T00:27:49.136Z,36.37
2023-03-25T00:30:20.397Z,36.20
2023-03-25T00:32:53.236Z,39.43
2023-03-25T00:35:22.803Z,40.57
2023-03-25T00:38:00.578Z,39.17
2023-03-25T00:40:42.628Z,35.17
2023-03-25T00:43:11.615Z,36.20
2023-03-25T00:45:40.709Z,42.07
2023-03-25T00:48:09.127Z,38.23
2023-03-25T00:50:37.751Z,39.20
2023-03-25T00:53:10.027Z,37.27
2023-03-25T00:55:41.716Z,35.70
2023-03-25T00:58:10.465Z,41.10
2023-03-25T01:00:39.854Z,35.53
2023-03-25T01:03:10.576Z,40.70
2023-03-25T01:05:42.122Z,42.63
2023-03-25T01:08:10.934Z,37.50
2023-03-25T01:10:40.760Z,43.77
2023-03-25T01:13:10.849Z,36.40
2023-03-25T01:15:42.901Z,43.63
2023-03-25T01:18:11.208Z,37.70
2023-03-25T01:20:40.905Z,35.63
2023-03-25T01:23:12.997Z,40.00
2023-03-25T01:25:41.322Z,39.97
2023-03-25T01:28:11.567Z,44.57
2023-03-25T01:30:39.852Z,39.20
2023-03-25T01:33:12.095Z,43.67
2023-03-25T01:35:43.736Z,40.63
2023-03-25T01:38:13.590Z,35.63
2023-03-25T01:40:42.336Z,39.60
2023-03-25T01:43:13.995Z,42.07
2023-03-25T01:45:45.580Z,35.60
2023-03-25T01:48:33.417Z,39.33
2023-03-25T01:51:05.624Z,39.73
2023-03-25T01:53:34.178Z,35.97
2023-03-25T01:56:07.230Z,35.73
2023-03-25T01:58:37.944Z,43.77
2023-03-25T02:01:13.990Z,37.03
2023-03-25T02:03:46.753Z,47.03
2023-03-25T02:06:39.916Z,39.63
2023-03-25T02:09:12.652Z,41.67
2023-03-25T02:11:41.465Z,38.17
2023-03-25T02:14:16.538Z,39.10
2023-03-25T02:17:01.593Z,42.50
2023-03-25T02:20:09.897Z,41.93
2023-03-25T02:23:08.329Z,41.27
2023-03-25T02:25:59.370Z,41.53
2023-03-25T02:28:43.051Z,42.93
2023-03-25T02:31:37.107Z,43.50
2023-03-25T02:34:30.035Z,42.70
2023-03-25T02:37:23.402Z,38.83
2023-03-25T02:40:07.562Z,40.50
2023-03-25T02:42:55.933Z,41.17
2023-03-25T02:45:33.390Z,41.23
2023-03-25T02:48:06.028Z,43.93
2023-03-25T02:50:41.537Z,45.53
2023-03-25T02:53:14.667Z,49.93
2023-03-25T02:55:47.443Z,44.57
2023-03-25T02:58:18.540Z,41.90
2023-03-25T03:00:52.570Z,43.80
2023-03-25T03:03:23.053Z,49.97
2023-03-25T03:05:52.611Z,41.73
2023-03-25T03:08:51.622Z,47.03
2023-03-25T03:11:43.293Z,48.40
2023-03-25T03:14:31.295Z,46.37
2023-03-25T03:17:18.842Z,45.63
2023-03-25T03:20:28.661Z,44.07
2023-03-25T03:23:11.364Z,46.90
2023-03-25T03:25:51.567Z,39.33
2023-03-25T03:28:38.318Z,47.00
2023-03-25T03:31:48.822Z,40.43
2023-03-25T03:34:19.162Z,44.67
2023-03-25T03:36:51.397Z,41.90
2023-03-25T03:39:22.247Z,39.80
2023-03-25T03:41:54.521Z,40.00
2023-03-25T03:44:27.090Z,37.20
2023-03-25T03:47:24.788Z,39.73
2023-03-25T03:50:16.502Z,38.17
2023-03-25T03:52:50.924Z,34.77
2023-03-25T03:55:56.848Z,34.33
2023-03-25T03:58:53.723Z,40.03
2023-03-25T04:01:35.722Z,27.13
2023-03-25T04:04:06.609Z,27.23
2023-03-25T04:06:42.161Z,25.63
2023-03-25T04:09:28.708Z,22.40
2023-03-25T04:12:08.272Z,25.73
2023-03-25T04:14:41.727Z,23.90
2023-03-25T04:17:11.655Z,24.47
2023-03-25T04:19:39.988Z,25.27
2023-03-25T04:22:18.869Z,22.67
2023-03-25T04:24:50.282Z,24.13
2023-03-25T04:27:20.539Z,22.40
2023-03-25T04:29:49.935Z,26.40
2023-03-25T04:32:18.648Z,28.73
2023-03-25T04:34:47.538Z,28.27
2023-03-25T04:37:17.309Z,28.47
2023-03-25T04:39:45.509Z,34.27
2023-03-25T04:42:19.233Z,32.70
2023-03-25T04:44:48.435Z,34.47
2023-03-25T04:47:28.041Z,36.90
2023-03-25T04:49:56.227Z,37.00
2023-03-25T04:52:24.953Z,38.13
2023-03-25T04:54:53.912Z,46.40
2023-03-25T04:57:22.914Z,50.17
2023-03-25T04:59:51.854Z,53.90
2023-03-25T05:02:21.189Z,49.17
2023-03-25T05:04:50.469Z,53.77
2023-03-25T05:07:19.872Z,56.40
2023-03-25T05:09:49.068Z,58.37
2023-03-25T05:12:17.714Z,62.20
2023-03-25T05:14:45.873Z,64.10
2023-03-25T05:17:14.093Z,58.73
2023-03-25T05:19:46.584Z,61.60
2023-03-25T05:22:15.509Z,67.60
2023-03-25T05:24:45.525Z,66.43
2023-03-25T05:27:20.506Z,69.40
2023-03-25T05:29:49.005Z,74.13
2023-03-25T05:32:18.192Z,71.17
2023-03-25T05:34:47.481Z,76.03
2023-03-25T05:37:15.998Z,71.57
2023-03-25T05:39:46.827Z,77.73
2023-03-25T05:42:23.250Z,83.30
2023-03-25T05:44:55.529Z,70.13
2023-03-25T05:47:25.465Z,70.73
2023-03-25T05:49:54.706Z,65.63
2023-03-25T05:52:24.938Z,70.67
2023-03-25T05:54:52.864Z,67.83
2023-03-25T05:57:22.950Z,64.70
2023-03-25T05:59:51.589Z,62.60
2023-03-25T06:02:20.094Z,59.33
2023-03-25T06:04:51.718Z,60.35
2023-03-25T06:07:22.766Z,56.15
2023-03-25T06:09:56.583Z,60.35
2023-03-25T06:12:27.853Z,62.63
2023-03-25T06:14:58.921Z,57.73
2023-03-25T06:17:39.246Z,59.43
2023-03-25T06:20:12.881Z,60.63
2023-03-25T06:22:45.605Z,55.10
2023-03-25T06:25:20.147Z,57.97
2023-03-25T06:27:50.728Z,58.67
2023-03-25T06:30:22.327Z,53.93
2023-03-25T06:33:11.319Z,56.90
2023-03-25T06:35:43.049Z,58.83
2023-03-25T06:38:11.209Z,64.83
2023-03-25T06:40:39.859Z,68.10
2023-03-25T06:43:08.077Z,60.97
2023-03-25T06:45:36.640Z,69.80
2023-03-25T06:48:07.240Z,64.13
2023-03-25T06:50:36.300Z,64.53
2023-03-25T06:53:04.664Z,70.30
2023-03-25T06:55:33.573Z,55.87
2023-03-25T06:58:01.703Z,53.53
2023-03-25T07:00:29.963Z,63.83
2023-03-25T07:03:01.999Z,70.00
2023-03-25T07:05:30.253Z,50.80
2023-03-25T07:08:00.244Z,55.47
2023-03-25T07:10:32.896Z,46.30
2023-03-25T07:13:08.597Z,53.23
2023-03-25T07:15:36.836Z,47.80
2023-03-25T07:18:05.189Z,44.93
2023-03-25T07:20:35.678Z,43.60
2023-03-25T07:23:04.818Z,37.47
2023-03-25T07:25:32.983Z,41.30
2023-03-25T07:28:00.902Z,30.87
2023-03-25T07:30:29.137Z,35.10
2023-03-25T07:33:00.741Z,42.70
2023-03-25T07:35:29.420Z,45.43
2023-03-25T07:37:58.348Z,47.63
2023-03-25T07:40:31.932Z,46.03
2023-03-25T07:43:00.414Z,44.83
2023-03-25T07:45:28.891Z,42.87
2023-03-25T07:48:02.511Z,46.57
2023-03-25T07:50:34.516Z,48.30
2023-03-25T07:53:03.542Z,52.37
2023-03-25T07:55:31.628Z,40.10
2023-03-25T07:58:02.552Z,44.73
2023-03-25T08:00:31.282Z,43.17
2023-03-25T08:03:00.051Z,45.77
2023-03-25T08:05:28.344Z,51.50
2023-03-25T08:08:00.426Z,39.00
2023-03-25T08:10:28.774Z,47.47
2023-03-25T08:12:57.119Z,46.80
2023-03-25T08:15:25.234Z,49.30
2023-03-25T08:17:54.336Z,46.93
2023-03-25T08:20:25.773Z,59.37
2023-03-25T08:22:57.697Z,70.30
2023-03-25T08:25:27.010Z,68.07
2023-03-25T08:27:59.002Z,59.53
2023-03-25T08:30:27.478Z,57.50
2023-03-25T08:32:55.901Z,51.80
2023-03-25T08:35:44.070Z,54.10
2023-03-25T08:38:13.764Z,53.73
2023-03-25T08:40:44.157Z,46.77
2023-03-25T08:43:12.291Z,49.63
2023-03-25T08:45:45.239Z,47.63
2023-03-25T08:48:16.250Z,52.40
2023-03-25T08:50:47.238Z,65.23
2023-03-25T08:53:15.966Z,61.27
2023-03-25T08:55:44.344Z,57.90
2023-03-25T08:58:14.576Z,58.43
2023-03-25T09:00:43.522Z,57.63
2023-03-25T09:03:12.247Z,60.67
2023-03-25T09:05:43.147Z,51.17
2023-03-25T09:08:12.795Z,62.03
2023-03-25T09:10:41.384Z,55.93
2023-03-25T09:13:10.037Z,55.30
2023-03-25T09:15:39.218Z,55.77
2023-03-25T09:18:10.695Z,55.43
2023-03-25T09:20:39.631Z,41.90
2023-03-25T09:23:09.950Z,35.27
2023-03-25T09:25:46.653Z,33.43
2023-03-25T09:28:15.389Z,35.90
2023-03-25T09:30:43.872Z,35.03
2023-03-25T09:33:12.556Z,33.97
2023-03-25T09:35:41.798Z,29.53
2023-03-25T09:38:12.461Z,35.80
2023-03-25T09:40:44.627Z,45.47
2023-03-25T09:43:35.244Z,46.57
2023-03-25T09:46:04.154Z,39.07
2023-03-25T09:48:44.000Z,39.07
2023-03-25T09:51:14.904Z,37.67
2023-03-25T09:54:20.173Z,31.43
2023-03-25T09:56:48.951Z,36.60
2023-03-25T09:59:22.618Z,52.80
2023-03-25T10:02:06.209Z,44.63
2023-03-25T10:04:50.358Z,38.93
2023-03-25T10:07:40.547Z,37.00
2023-03-25T10:10:33.011Z,80.37
2023-03-25T10:13:28.755Z,60.40
2023-03-25T10:16:19.022Z,44.80
2023-03-25T10:19:23.179Z,35.90
2023-03-25T10:21:51.190Z,23.67
2023-03-25T10:24:45.758Z,21.73
2023-03-25T10:27:28.086Z,19.90
2023-03-25T10:30:01.650Z,27.00
2023-03-25T10:32:40.488Z,26.53
2023-03-25T10:35:32.608Z,23.23
2023-03-25T10:38:13.909Z,27.77
2023-03-25T10:40:50.597Z,23.40
2023-03-25T10:43:31.757Z,37.27
2023-03-25T10:46:47.995Z,28.77
2023-03-25T10:49:22.631Z,30.00
2023-03-25T10:51:57.331Z,22.17
2023-03-25T10:54:33.585Z,28.80
2023-03-25T10:57:08.603Z,20.23
2023-03-25T11:00:07.056Z,17.93
2023-03-25T11:02:43.710Z,17.97
2023-03-25T11:05:21.930Z,14.23
2023-03-25T11:08:11.626Z,17.23
2023-03-25T11:10:57.872Z,19.17
2023-03-25T11:13:31.012Z,18.13
2023-03-25T11:16:04.082Z,17.67
2023-03-25T11:18:37.408Z,19.03
2023-03-25T11:21:17.920Z,20.60
2023-03-25T11:23:51.208Z,17.27
2023-03-25T11:26:21.892Z,13.73
2023-03-25T11:28:52.815Z,22.20
2023-03-25T11:31:29.509Z,19.33
2023-03-25T11:34:13.187Z,18.37
2023-03-25T11:37:10.050Z,22.07
2023-03-25T11:39:40.719Z,18.60
2023-03-25T11:42:37.656Z,16.43
2023-03-25T11:45:06.779Z,14.20
2023-03-25T11:47:41.009Z,27.27
2023-03-25T11:50:20.727Z,14.30
2023-03-25T11:52:50.945Z,14.00
2023-03-25T11:55:31.684Z,20.17
2023-03-25T11:58:02.438Z,16.13
2023-03-25T12:00:39.311Z,14.57
2023-03-25T12:03:14.609Z,16.27
2023-03-25T12:06:02.377Z,14.10
2023-03-25T12:08:58.824Z,12.97
2023-03-25T12:11:37.482Z,20.03
2023-03-25T12:14:18.455Z,14.70
2023-03-25T12:16:58.522Z,31.60
2023-03-25T12:19:42.797Z,16.83
2023-03-25T12:22:16.514Z,17.93
2023-03-25T12:25:07.459Z,14.87
2023-03-25T12:28:05.585Z,15.33
2023-03-25T12:30:36.644Z,16.40
2023-03-25T12:33:33.072Z,16.57
2023-03-25T12:36:12.841Z,24.23
2023-03-25T12:39:24.923Z,19.43
2023-03-25T12:42:13.130Z,13.30
2023-03-25T12:44:53.734Z,19.10
2023-03-25T12:47:26.329Z,15.00
2023-03-25T12:50:18.678Z,23.03
2023-03-25T12:53:22.306Z,17.60
2023-03-25T12:56:16.213Z,25.03
2023-03-25T12:59:10.625Z,18.83
2023-03-25T13:02:26.390Z,20.33
2023-03-25T13:05:06.855Z,16.57
2023-03-25T13:07:36.894Z,17.40
2023-03-25T13:10:27.937Z,18.77
2023-03-25T13:12:59.344Z,21.20
2023-03-25T13:15:38.158Z,17.27
2023-03-25T13:18:12.036Z,21.90
2023-03-25T13:20:52.574Z,20.73
2023-03-25T13:23:23.954Z,24.87
2023-03-25T13:25:57.908Z,23.57
2023-03-25T13:28:49.634Z,19.60
2023-03-25T13:31:21.628Z,24.97
2023-03-25T13:34:07.571Z,22.83
2023-03-25T13:36:51.569Z,21.47
2023-03-25T13:39:23.748Z,22.17
2023-03-25T13:42:07.283Z,22.67
2023-03-25T13:44:40.389Z,29.63
2023-03-25T13:47:38.131Z,20.43
2023-03-25T13:50:29.843Z,23.13
2023-03-25T13:53:28.314Z,29.73
2023-03-25T13:56:11.981Z,27.73
2023-03-25T13:59:05.538Z,23.00
2023-03-25T14:02:03.578Z,24.73
2023-03-25T14:04:48.333Z,23.00
2023-03-25T14:08:09.851Z,25.13
2023-03-25T14:11:07.626Z,22.70
2023-03-25T14:13:43.525Z,24.37
2023-03-25T14:16:16.442Z,20.30
2023-03-25T14:18:47.407Z,25.93
2023-03-25T14:21:22.423Z,22.77
2023-03-25T14:24:08.450Z,23.00
2023-03-25T14:26:38.143Z,22.90
2023-03-25T14:29:11.448Z,23.80
2023-03-25T14:31:39.794Z,23.17
2023-03-25T14:34:11.037Z,24.33
2023-03-25T14:36:41.221Z,24.77
2023-03-25T14:39:30.967Z,27.33
2023-03-25T14:42:08.867Z,23.07
2023-03-25T14:44:49.979Z,22.17
2023-03-25T14:47:28.080Z,27.53
2023-03-25T14:50:21.002Z,26.97
2023-03-25T14:52:52.257Z,22.60
2023-03-25T14:55:24.299Z,22.63
2023-03-25T14:57:59.133Z,25.03
2023-03-25T15:00:34.739Z,27.53
2023-03-25T15:03:13.154Z,27.47
2023-03-25T15:05:42.671Z,23.87
2023-03-25T15:08:31.826Z,31.40
2023-03-25T15:11:06.414Z,25.30
2023-03-25T15:13:53.091Z,22.07
2023-03-25T15:16:34.329Z,25.47
2023-03-25T15:19:11.493Z,25.07
2023-03-25T15:21:58.676Z,30.77
2023-03-25T15:24:35.254Z,25.43
2023-03-25T15:27:28.738Z,25.23
2023-03-25T15:29:56.861Z,28.70
2023-03-25T15:32:44.537Z,28.23
2023-03-25T15:35:37.857Z,23.57
2023-03-25T15:38:27.681Z,25.57
2023-03-25T15:41:23.204Z,32.33
2023-03-25T15:44:18.535Z,28.23
2023-03-25T15:47:05.081Z,27.37
2023-03-25T15:50:04.167Z,31.00
2023-03-25T15:52:38.165Z,27.97
2023-03-25T15:55:10.110Z,26.93
2023-03-25T15:57:43.552Z,28.40
2023-03-25T16:00:26.641Z,28.63
2023-03-25T16:03:05.001Z,29.57
2023-03-25T16:05:39.748Z,33.23
2023-03-25T16:08:16.094Z,34.40
2023-03-25T16:10:52.494Z,37.63
2023-03-25T16:13:28.982Z,28.13
2023-03-25T16:16:10.345Z,34.27
2023-03-25T16:18:44.625Z,30.03
2023-03-25T16:21:13.465Z,28.53
2023-03-25T16:23:42.345Z,26.13
2023-03-25T16:26:16.625Z,27.27
2023-03-25T16:28:45.191Z,27.13
2023-03-25T16:31:41.363Z,36.30
2023-03-25T16:34:16.213Z,25.50
2023-03-25T16:36:46.222Z,26.83
2023-03-25T16:39:15.869Z,28.00
2023-03-25T16:41:48.725Z,25.80
2023-03-25T16:44:20.819Z,27.53
2023-03-25T16:46:51.070Z,35.23
2023-03-25T16:49:48.908Z,31.33
2023-03-25T16:52:21.188Z,30.40
2023-03-25T16:54:52.714Z,34.87
2023-03-25T16:57:24.985Z,42.07
2023-03-25T16:59:55.002Z,40.43
2023-03-25T17:02:42.510Z,41.47
2023-03-25T17:05:22.701Z,43.43
2023-03-25T17:08:08.696Z,43.60
2023-03-25T17:10:53.512Z,38.00
2023-03-25T17:13:52.422Z,36.07
2023-03-25T17:16:21.743Z,37.67
2023-03-25T17:18:54.403Z,51.07
2023-03-25T17:21:30.572Z,41.07
2023-03-25T17:24:06.582Z,39.40
2023-03-25T17:26:58.762Z,31.67
2023-03-25T17:29:29.699Z,32.33
2023-03-25T17:31:59.624Z,29.03
2023-03-25T17:34:32.571Z,30.57
2023-03-25T17:37:06.166Z,29.37
2023-03-25T17:39:34.927Z,29.80
2023-03-25T17:42:03.448Z,27.83
2023-03-25T17:44:37.897Z,32.73
2023-03-25T17:47:08.595Z,31.13
2023-03-25T17:49:38.867Z,32.63
2023-03-25T17:52:10.547Z,33.63
2023-03-25T17:54:39.705Z,31.73
2023-03-25T17:57:13.901Z,28.50
2023-03-25T17:59:44.205Z,26.23
2023-03-25T18:02:16.861Z,37.60
2023-03-25T18:04:46.236Z,29.30
2023-03-25T18:07:14.920Z,26.23
2023-03-25T18:09:43.905Z,26.77
2023-03-25T18:12:15.362Z,29.60
2023-03-25T18:14:45.473Z,28.63
2023-03-25T18:17:13.828Z,32.03
2023-03-25T18:19:50.698Z,27.03
2023-03-25T18:22:20.524Z,29.40
2023-03-25T18:24:49.632Z,31.10
2023-03-25T18:27:30.684Z,33.63
2023-03-25T18:30:29.237Z,39.80
2023-03-25T18:32:58.200Z,34.30
2023-03-25T18:35:26.599Z,32.70
2023-03-25T18:37:55.892Z,35.93
2023-03-25T18:40:32.111Z,38.80
2023-03-25T18:43:01.104Z,35.73
2023-03-25T18:45:29.680Z,40.60
2023-03-25T18:47:59.658Z,43.03
2023-03-25T18:50:36.896Z,45.07
2023-03-25T18:53:10.533Z,39.93
2023-03-25T18:55:39.206Z,40.53
2023-03-25T18:58:11.451Z,41.73
2023-03-25T19:00:42.202Z,41.50
2023-03-25T19:03:10.068Z,41.47
2023-03-25T19:05:40.923Z,37.63
2023-03-25T19:08:23.922Z,41.67
2023-03-25T19:10:57.374Z,39.53
2023-03-25T19:13:35.929Z,38.33
2023-03-25T19:16:04.484Z,45.37
2023-03-25T19:18:36.612Z,46.17
2023-03-25T19:21:16.091Z,45.53
2023-03-25T19:23:44.858Z,49.37
2023-03-25T19:26:13.822Z,53.17
2023-03-25T19:28:50.143Z,50.20
2023-03-25T19:31:19.552Z,49.77
2023-03-25T19:33:58.828Z,59.60
2023-03-25T19:36:26.922Z,53.63
2023-03-25T19:39:00.507Z,66.40
2023-03-25T19:41:29.575Z,59.27
2023-03-25T19:43:58.211Z,63.20
2023-03-25T19:46:29.509Z,78.77
2023-03-25T19:49:00.569Z,67.23
2023-03-25T19:51:28.827Z,58.30
2023-03-25T19:54:01.364Z,55.03
2023-03-25T19:56:30.118Z,53.43
2023-03-25T19:58:58.471Z,51.33
2023-03-25T20:01:27.200Z,47.00
2023-03-25T20:03:57.491Z,47.97
2023-03-25T20:06:29.415Z,40.47
2023-03-25T20:08:57.955Z,38.97
2023-03-25T20:11:26.349Z,36.37
2023-03-25T20:14:06.916Z,38.97
2023-03-25T20:16:37.194Z,39.47
2023-03-25T20:19:05.391Z,40.07
2023-03-25T20:21:37.476Z,34.60
2023-03-25T20:24:09.359Z,34.03
2023-03-25T20:26:38.488Z,33.07
2023-03-25T20:29:09.062Z,44.33
2023-03-25T20:31:37.482Z,30.10
2023-03-25T20:34:06.944Z,33.53
2023-03-25T20:36:36.795Z,37.63
2023-03-25T20:39:08.134Z,40.43
2023-03-25T20:41:38.302Z,34.67
2023-03-25T20:44:06.695Z,30.27
2023-03-25T20:46:39.379Z,36.50
2023-03-25T20:49:17.034Z,34.27
2023-03-25T20:51:48.775Z,38.07
2023-03-25T20:54:17.463Z,35.30
2023-03-25T20:56:48.707Z,35.03
2023-03-25T20:59:18.304Z,42.57
2023-03-25T21:01:51.151Z,34.60
2023-03-25T21:04:21.270Z,33.83
2023-03-25T21:06:53.620Z,34.13
2023-03-25T21:09:22.304Z,35.10
2023-03-25T21:11:51.307Z,36.73
2023-03-25T21:14:19.682Z,34.30
2023-03-25T21:16:51.067Z,32.33
2023-03-25T21:19:20.910Z,37.13
2023-03-25T21:21:50.949Z,33.60
2023-03-25T21:24:22.613Z,44.83
2023-03-25T21:26:52.635Z,38.23
2023-03-25T21:29:21.259Z,33.40
2023-03-25T21:31:49.558Z,35.27
2023-03-25T21:34:22.612Z,36.40
2023-03-25T21:36:51.074Z,33.73
2023-03-25T21:39:44.165Z,36.63
2023-03-25T21:42:12.552Z,37.77
2023-03-25T21:44:49.975Z,45.73
2023-03-25T21:47:18.413Z,43.73
2023-03-25T21:49:47.162Z,34.93
2023-03-25T21:52:15.622Z,38.47
2023-03-25T21:54:43.980Z,42.37
2023-03-25T21:57:13.609Z,37.27
2023-03-25T21:59:41.883Z,43.93
2023-03-25T22:02:14.648Z,44.17
2023-03-25T22:04:43.293Z,42.73
2023-03-25T22:07:11.597Z,44.03
2023-03-25T22:09:41.307Z,41.00
2023-03-25T22:12:09.552Z,47.90
2023-03-25T22:14:37.699Z,37.93
2023-03-25T22:17:16.975Z,45.57
2023-03-25T22:19:47.585Z,47.43
2023-03-25T22:22:19.474Z,44.57
2023-03-25T22:24:49.033Z,45.33
2023-03-25T22:27:17.835Z,45.17
2023-03-25T22:29:49.076Z,46.93
2023-03-25T22:32:17.444Z,42.27
2023-03-25T22:34:46.344Z,49.30
2023-03-25T22:37:16.312Z,44.27
2023-03-25T22:39:44.980Z,50.17
2023-03-25T22:42:13.351Z,45.57
2023-03-25T22:44:45.067Z,41.73
2023-03-25T22:47:13.381Z,48.57
2023-03-25T22:49:44.624Z,46.03
2023-03-25T22:52:13.122Z,48.33
2023-03-25T22:54:41.664Z,43.47
2023-03-25T22:57:09.722Z,53.77
2023-03-25T22:59:39.790Z,45.03
2023-03-25T23:02:08.332Z,47.63
2023-03-25T23:04:37.258Z,45.10
2023-03-25T23:07:08.359Z,44.47
2023-03-25T23:09:45.285Z,42.83
2023-03-25T23:12:21.415Z,43.63
2023-03-25T23:14:53.146Z,40.83
2023-03-25T23:17:25.740Z,42.53
2023-03-25T23:19:53.949Z,38.30
2023-03-25T23:22:25.461Z,38.10
2023-03-25T23:24:53.858Z,39.30
2023-03-25T23:27:22.749Z,39.60
2023-03-25T23:29:54.015Z,40.97
2023-03-25T23:32:22.858Z,40.47
2023-03-25T23:34:51.477Z,36.07
2023-03-25T23:37:19.985Z,36.20
2023-03-25T23:39:53.533Z,36.17
2023-03-25T23:42:23.306Z,34.70
2023-03-25T23:45:03.835Z,30.23
2023-03-25T23:47:34.543Z,32.73
2023-03-25T23:50:02.593Z,29.43
2023-03-25T23:52:34.173Z,33.73
2023-03-25T23:55:03.226Z,28.67
2023-03-25T23:57:31.938Z,31.70
